Time;durP1;ratioP1;P1;durP2;ratioP2;P2;SDS_P1;SDS_P2;PMS_P1;PMS_P2;Temp;Humidity;BMP_temperature;BMP_pressure;BME280_temperature;BME280_humidity;BME280_pressure;Samples;Min_cycle;Max_cycle;Signal;HPM_P1;HPM_P2
2022/01/21 00:01:57;;;;;;;8.37;2.07;;;5.00;99.90;;;;;;6183340;23;20182;-87
2022/01/21 00:04:24;;;;;;;8.63;2.03;;;5.10;99.90;;;;;;6182589;23;20197;-92
2022/01/21 00:06:51;;;;;;;14.07;2.50;;;5.00;99.90;;;;;;6182758;23;20179;-89
2022/01/21 00:09:18;;;;;;;7.87;1.80;;;5.00;99.90;;;;;;6183388;23;20436;-91
2022/01/21 00:11:46;;;;;;;12.27;2.07;;;5.10;99.90;;;;;;6183592;23;20182;-90
2022/01/21 00:14:13;;;;;;;5.73;2.60;;;5.00;99.90;;;;;;6183835;23;20178;-92
2022/01/21 00:16:40;;;;;;;21.30;3.43;;;4.90;99.90;;;;;;6183424;23;20930;-91
2022/01/21 00:19:11;;;;;;;13.67;2.90;;;5.00;99.90;;;;;;6183394;23;20171;-92
2022/01/21 00:30:13;;;;;;;6.93;1.87;;;5.00;99.90;;;;;;6183118;23;20725;-91
2022/01/21 00:32:41;;;;;;;18.23;3.27;;;5.00;99.90;;;;;;6182764;23;20194;-90
2022/01/21 00:35:08;;;;;;;12.57;1.90;;;5.10;99.90;;;;;;6182249;23;20173;-84
2022/01/21 00:37:36;;;;;;;7.43;1.50;;;5.20;99.90;;;;;;6181142;23;20619;-82
2022/01/21 00:40:05;;;;;;;6.50;1.10;;;5.10;99.90;;;;;;6181287;23;20170;-85
2022/01/21 00:42:50;;;;;;;6.13;2.30;;;5.00;99.90;;;;;;6181542;23;20170;-82
2022/01/21 00:45:19;;;;;;;3.07;1.13;;;4.90;99.90;;;;;;6182740;23;20190;-84
2022/01/21 00:47:46;;;;;;;2.93;1.17;;;4.80;99.90;;;;;;6179971;23;20206;-85
2022/01/21 00:50:14;;;;;;;4.00;1.60;;;4.70;99.90;;;;;;6180656;23;20214;-85
2022/01/21 00:52:40;;;;;;;6.47;1.30;;;4.60;99.90;;;;;;6182446;23;20191;-86
2022/01/21 00:55:09;;;;;;;4.93;1.20;;;4.50;99.90;;;;;;6182420;23;20167;-86
2022/01/21 00:57:37;;;;;;;4.97;1.30;;;4.50;99.90;;;;;;6182593;23;20181;-85
2022/01/21 01:00:06;;;;;;;6.47;1.80;;;4.40;99.90;;;;;;6182233;23;20183;-85
2022/01/21 01:02:32;;;;;;;9.20;1.77;;;4.30;99.90;;;;;;6181064;23;20175;-82
2022/01/21 01:04:59;;;;;;;9.73;2.17;;;4.40;99.90;;;;;;6181559;23;20190;-88
2022/01/21 01:07:27;;;;;;;6.53;1.90;;;4.40;99.90;;;;;;6180760;23;20178;-86
2022/01/21 01:09:56;;;;;;;12.80;1.73;;;4.30;99.90;;;;;;6181821;23;20169;-87
2022/01/21 01:12:37;;;;;;;8.67;1.90;;;4.30;99.90;;;;;;6182237;23;20175;-84
2022/01/21 01:20:43;;;;;;;10.60;1.93;;;4.10;99.90;;;;;;6179119;23;20170;-83
2022/01/21 01:23:23;;;;;;;12.87;2.33;;;4.10;99.90;;;;;;6181300;23;20175;-86
2022/01/21 01:28:34;;;;;;;19.07;3.37;;;4.20;99.90;;;;;;6179920;23;20166;-84
2022/01/21 01:31:02;;;;;;;14.10;1.93;;;4.20;99.90;;;;;;6180810;23;20179;-82
2022/01/21 01:33:35;;;;;;;10.43;1.80;;;4.10;99.90;;;;;;6180893;23;20195;-87
2022/01/21 01:36:03;;;;;;;13.27;2.37;;;4.00;99.90;;;;;;6181775;23;20604;-86
2022/01/21 01:38:57;;;;;;;14.43;2.57;;;4.00;99.90;;;;;;6180619;23;20226;-84
2022/01/21 01:41:28;;;;;;;9.40;1.97;;;4.00;99.90;;;;;;6180838;23;20177;-84
2022/01/21 01:49:30;;;;;;;4.20;1.70;;;3.80;99.90;;;;;;6179254;23;20174;-83
2022/01/21 01:51:58;;;;;;;7.47;1.73;;;3.70;99.90;;;;;;6180413;23;20253;-83
2022/01/21 01:54:26;;;;;;;10.80;1.83;;;3.70;99.90;;;;;;6177549;23;20186;-85
2022/01/21 01:56:56;;;;;;;6.43;1.70;;;3.60;99.90;;;;;;6176897;23;20167;-87
2022/01/21 01:59:24;;;;;;;5.50;1.47;;;3.60;99.90;;;;;;6178496;23;20179;-87
2022/01/21 02:01:53;;;;;;;5.97;1.93;;;3.50;99.90;;;;;;6179098;23;20183;-87
2022/01/21 02:04:20;;;;;;;5.70;1.43;;;3.50;99.90;;;;;;6179353;23;20205;-87
2022/01/21 02:06:48;;;;;;;6.63;2.23;;;3.50;99.90;;;;;;6180560;23;20170;-86
2022/01/21 02:09:15;;;;;;;19.27;3.90;;;3.50;99.90;;;;;;6181876;23;20635;-87
2022/01/21 02:11:42;;;;;;;13.60;2.40;;;3.60;99.90;;;;;;6180953;23;20565;-87
2022/01/21 02:14:13;;;;;;;10.53;2.17;;;3.60;99.90;;;;;;6181188;23;20180;-87
2022/01/21 02:17:04;;;;;;;8.93;2.57;;;3.70;99.90;;;;;;6181379;23;20198;-87
2022/01/21 02:22:19;;;;;;;8.80;2.00;;;3.80;99.90;;;;;;6181244;23;20170;-84
2022/01/21 02:24:50;;;;;;;11.00;1.60;;;4.00;99.90;;;;;;6181267;23;20252;-86
2022/01/21 02:27:17;;;;;;;13.80;2.37;;;4.10;99.90;;;;;;6181894;23;20249;-86
2022/01/21 02:29:47;;;;;;;8.87;2.50;;;4.20;99.90;;;;;;6182166;23;20178;-87
2022/01/21 02:32:16;;;;;;;10.83;2.07;;;4.30;99.90;;;;;;6181081;23;20544;-86
2022/01/21 02:34:44;;;;;;;9.00;1.50;;;4.30;99.90;;;;;;6181227;23;20167;-88
2022/01/21 02:37:14;;;;;;;9.67;1.77;;;4.40;99.90;;;;;;6181389;23;20170;-87
2022/01/21 02:39:43;;;;;;;12.93;2.33;;;4.40;99.90;;;;;;6180523;23;20182;-86
2022/01/21 02:42:10;;;;;;;7.27;2.00;;;4.50;99.90;;;;;;6182165;23;20178;-88
2022/01/21 02:44:38;;;;;;;11.20;1.63;;;4.50;99.90;;;;;;6181061;23;20253;-87
2022/01/21 02:47:06;;;;;;;14.07;3.13;;;4.50;99.90;;;;;;6180471;23;20176;-87
2022/01/21 02:49:33;;;;;;;6.70;1.43;;;4.60;99.90;;;;;;6180869;23;20207;-86
2022/01/21 02:52:02;;;;;;;6.67;1.63;;;4.70;99.90;;;;;;6181277;23;20187;-87
2022/01/21 02:54:30;;;;;;;6.93;1.83;;;4.70;99.90;;;;;;6180668;23;20170;-85
2022/01/21 02:56:59;;;;;;;8.50;1.90;;;4.80;99.90;;;;;;6181213;23;20171;-85
2022/01/21 02:59:27;;;;;;;9.07;2.30;;;4.70;99.90;;;;;;6181229;23;20175;-85
2022/01/21 03:01:54;;;;;;;7.43;1.53;;;4.70;99.90;;;;;;6181862;23;20178;-86
2022/01/21 03:04:29;;;;;;;9.20;1.90;;;4.70;99.90;;;;;;6181036;23;20174;-84
2022/01/21 03:06:56;;;;;;;7.63;2.37;;;4.70;99.90;;;;;;6180601;23;20606;-82
2022/01/21 03:09:22;;;;;;;10.30;1.60;;;4.60;99.90;;;;;;6180536;23;20163;-86
2022/01/21 03:11:49;;;;;;;9.27;1.80;;;4.60;99.90;;;;;;6179195;23;20181;-85
2022/01/21 03:14:17;;;;;;;10.33;1.50;;;4.60;99.90;;;;;;6179051;23;20178;-87
2022/01/21 03:16:45;;;;;;;6.73;1.43;;;4.50;99.90;;;;;;6180660;23;20824;-85
2022/01/21 03:19:12;;;;;;;7.73;1.73;;;4.50;99.90;;;;;;6181962;23;20181;-87
2022/01/21 03:21:38;;;;;;;7.90;1.33;;;4.50;99.90;;;;;;6181264;23;20176;-86
2022/01/21 03:24:06;;;;;;;8.23;1.87;;;4.50;99.90;;;;;;6181436;23;20174;-87
2022/01/21 03:26:33;;;;;;;7.33;1.40;;;4.40;99.90;;;;;;6178832;23;20626;-85
2022/01/21 03:29:02;;;;;;;6.03;2.17;;;4.40;99.90;;;;;;6177397;23;20179;-87
2022/01/21 03:31:31;;;;;;;4.70;1.30;;;4.30;99.90;;;;;;6181121;23;20171;-88
2022/01/21 03:33:59;;;;;;;7.47;2.20;;;4.30;99.90;;;;;;6181928;23;20556;-87
2022/01/21 03:36:26;;;;;;;7.37;1.70;;;4.20;99.90;;;;;;6181280;23;20251;-88
2022/01/21 03:38:53;;;;;;;7.73;2.07;;;4.20;99.90;;;;;;6178832;23;20193;-86
2022/01/21 03:41:20;;;;;;;5.97;1.40;;;4.20;99.90;;;;;;6181231;23;20185;-88
2022/01/21 03:43:49;;;;;;;9.27;1.80;;;4.20;99.90;;;;;;6182852;23;20179;-86
2022/01/21 03:46:16;;;;;;;9.33;2.10;;;4.10;99.90;;;;;;6182536;23;20200;-87
2022/01/21 03:48:48;;;;;;;9.87;2.33;;;4.10;99.90;;;;;;6182438;23;20202;-88
2022/01/21 03:51:15;;;;;;;7.67;2.33;;;4.20;99.90;;;;;;6183105;23;20241;-87
2022/01/21 03:53:44;;;;;;;10.57;2.37;;;4.30;99.90;;;;;;6183590;23;20171;-86
2022/01/21 03:56:10;;;;;;;13.47;2.57;;;4.40;99.90;;;;;;6183023;23;20492;-86
2022/01/21 03:58:37;;;;;;;8.67;2.77;;;4.50;99.90;;;;;;6183191;23;20215;-86
2022/01/21 04:01:04;;;;;;;14.40;3.47;;;4.60;99.90;;;;;;6183106;23;20175;-85
2022/01/21 04:03:31;;;;;;;16.17;1.70;;;4.60;99.90;;;;;;6182750;23;20171;-88
2022/01/21 04:06:00;;;;;;;11.13;1.67;;;4.70;99.90;;;;;;6183129;23;20206;-86
2022/01/21 04:08:27;;;;;;;11.97;2.60;;;4.70;99.90;;;;;;6183106;23;20181;-87
2022/01/21 04:10:54;;;;;;;10.03;1.90;;;4.70;99.90;;;;;;6183096;23;20179;-87
2022/01/21 04:13:22;;;;;;;12.67;2.50;;;4.70;99.90;;;;;;6183569;23;20178;-88
2022/01/21 04:15:50;;;;;;;12.70;2.03;;;4.80;99.90;;;;;;6170803;23;20582;-88
2022/01/21 04:18:18;;;;;;;8.93;2.10;;;4.80;99.90;;;;;;6182866;23;20183;-86
2022/01/21 04:20:47;;;;;;;9.37;1.90;;;4.90;99.90;;;;;;6182788;23;20177;-87
2022/01/21 04:23:16;;;;;;;9.83;2.03;;;4.90;99.90;;;;;;6183626;23;20171;-86
2022/01/21 04:25:43;;;;;;;9.03;1.67;;;4.90;99.90;;;;;;6181519;23;20639;-85
2022/01/21 04:28:11;;;;;;;7.00;1.00;;;5.00;99.90;;;;;;6179914;23;20444;-81
2022/01/21 04:30:38;;;;;;;6.83;1.50;;;5.10;99.90;;;;;;6179913;23;20167;-83
2022/01/21 04:33:05;;;;;;;6.00;1.43;;;5.10;99.90;;;;;;6179787;23;20239;-82
2022/01/21 04:35:34;;;;;;;3.23;1.07;;;5.10;99.90;;;;;;6181152;23;20178;-83
2022/01/21 04:38:04;;;;;;;2.97;0.90;;;5.00;99.90;;;;;;6181719;23;20178;-85
2022/01/21 04:40:37;;;;;;;5.30;1.77;;;4.90;99.90;;;;;;6181223;23;20423;-84
2022/01/21 04:48:34;;;;;;;6.90;1.63;;;4.70;99.90;;;;;;6182013;23;20170;-83
2022/01/21 04:51:13;;;;;;;7.80;1.90;;;4.70;99.90;;;;;;6181218;23;20194;-85
2022/01/21 04:53:41;;;;;;;7.17;2.60;;;4.70;99.90;;;;;;6180240;23;20167;-84
2022/01/21 04:56:09;;;;;;;9.97;1.97;;;4.70;99.90;;;;;;6180155;23;20174;-84
2022/01/21 04:58:36;;;;;;;11.00;1.90;;;4.60;99.90;;;;;;6180435;23;20171;-85
2022/01/21 05:01:05;;;;;;;7.53;1.43;;;4.50;99.90;;;;;;6177232;23;20579;-85
2022/01/21 05:03:33;;;;;;;11.77;2.27;;;4.50;99.90;;;;;;6180831;23;20171;-84
2022/01/21 05:06:00;;;;;;;7.53;1.47;;;4.40;99.90;;;;;;6180761;23;20221;-84
2022/01/21 05:08:31;;;;;;;7.17;1.87;;;4.40;99.90;;;;;;6181081;23;20178;-84
2022/01/21 05:11:00;;;;;;;5.43;1.37;;;4.40;99.90;;;;;;6181252;23;20179;-85
2022/01/21 05:13:36;;;;;;;8.53;1.93;;;4.30;99.90;;;;;;6179921;23;20612;-84
2022/01/21 05:16:07;;;;;;;7.70;1.80;;;4.30;99.90;;;;;;6181604;23;20166;-84
2022/01/21 05:18:34;;;;;;;9.90;2.00;;;4.30;99.90;;;;;;6181117;23;20202;-85
2022/01/21 05:21:01;;;;;;;9.30;1.70;;;4.20;99.90;;;;;;6180996;23;20167;-84
2022/01/21 05:23:29;;;;;;;7.33;2.20;;;4.20;99.90;;;;;;6181593;23;20178;-85
2022/01/21 05:25:56;;;;;;;8.40;2.37;;;4.10;99.90;;;;;;6181294;23;20198;-83
2022/01/21 05:28:23;;;;;;;11.33;2.17;;;4.10;99.90;;;;;;6180947;23;20186;-84
2022/01/21 05:30:51;;;;;;;9.70;2.47;;;4.20;99.90;;;;;;6181308;23;20471;-85
2022/01/21 05:33:18;;;;;;;8.17;1.73;;;4.20;99.90;;;;;;6181374;23;20186;-84
2022/01/21 05:35:45;;;;;;;8.53;1.83;;;4.20;99.90;;;;;;6179517;23;20178;-84
2022/01/21 05:38:11;;;;;;;11.73;2.13;;;4.20;99.90;;;;;;6180247;23;20186;-84
2022/01/21 05:40:38;;;;;;;16.90;2.20;;;4.30;99.90;;;;;;6178583;23;20175;-85
2022/01/21 05:43:06;;;;;;;12.57;2.80;;;4.30;99.90;;;;;;6180755;23;20418;-83
2022/01/21 05:48:18;;;;;;;15.33;2.43;;;4.20;99.90;;;;;;6181309;23;20249;-84
2022/01/21 05:50:45;;;;;;;9.30;2.07;;;4.40;99.90;;;;;;6180858;23;20205;-85
2022/01/21 05:53:13;;;;;;;12.13;2.23;;;4.40;99.90;;;;;;6181110;23;20233;-84
2022/01/21 05:55:41;;;;;;;8.87;2.03;;;4.60;99.90;;;;;;6180600;23;20173;-84
2022/01/21 05:58:09;;;;;;;7.53;1.80;;;4.60;99.90;;;;;;6181540;23;20267;-83
2022/01/21 06:00:36;;;;;;;8.90;2.00;;;4.60;99.90;;;;;;6181411;23;20181;-84
2022/01/21 06:03:04;;;;;;;14.43;2.27;;;4.60;99.90;;;;;;6181353;23;20174;-85
2022/01/21 06:05:33;;;;;;;8.40;1.80;;;4.60;99.90;;;;;;6181127;23;20194;-84
2022/01/21 06:08:02;;;;;;;17.20;2.50;;;4.60;99.90;;;;;;6180707;23;20857;-84
2022/01/21 06:10:29;;;;;;;10.07;2.20;;;4.60;99.90;;;;;;6179938;23;20186;-84
2022/01/21 06:12:56;;;;;;;8.67;2.10;;;4.70;99.90;;;;;;6180204;23;20179;-84
2022/01/21 06:15:24;;;;;;;12.20;2.40;;;4.80;99.90;;;;;;6178895;23;20173;-84
2022/01/21 06:17:50;;;;;;;18.47;2.87;;;4.80;99.90;;;;;;6179776;23;20178;-83
2022/01/21 06:20:17;;;;;;;14.10;2.57;;;4.90;99.90;;;;;;6179627;23;20174;-83
2022/01/21 06:22:46;;;;;;;13.23;2.13;;;5.00;99.90;;;;;;6179660;23;20186;-84
2022/01/21 06:25:13;;;;;;;15.40;3.07;;;5.10;99.90;;;;;;6180030;23;20173;-82
2022/01/21 06:27:39;;;;;;;16.30;3.40;;;5.10;99.90;;;;;;6178989;23;20178;-83
2022/01/21 06:30:08;;;;;;;15.83;2.70;;;5.10;99.90;;;;;;6179982;23;20556;-85
2022/01/21 06:32:38;;;;;;;12.97;2.60;;;5.10;99.90;;;;;;6179744;23;20237;-84
2022/01/21 06:35:06;;;;;;;15.93;2.83;;;5.10;99.90;;;;;;6178705;23;20235;-85
2022/01/21 06:37:33;;;;;;;4.03;1.87;;;5.10;99.90;;;;;;6176572;23;20180;-85
2022/01/21 06:40:02;;;;;;;10.27;2.63;;;5.10;99.90;;;;;;6179500;23;20178;-84
2022/01/21 06:42:30;;;;;;;22.10;2.93;;;5.00;99.90;;;;;;6178931;23;20167;-85
2022/01/21 06:44:57;;;;;;;21.90;3.87;;;5.00;99.90;;;;;;6178033;23;20202;-84
2022/01/21 06:47:25;;;;;;;16.80;3.87;;;5.00;99.90;;;;;;6179766;23;20202;-85
2022/01/21 06:49:54;;;;;;;17.67;3.20;;;5.00;99.90;;;;;;6178847;23;20206;-85
2022/01/21 06:52:21;;;;;;;14.07;3.70;;;5.00;99.90;;;;;;6180000;23;20190;-84
2022/01/21 06:54:48;;;;;;;9.27;2.33;;;5.00;99.90;;;;;;6181427;23;20226;-84
2022/01/21 06:57:16;;;;;;;13.43;2.90;;;5.00;99.90;;;;;;6180764;23;20586;-84
2022/01/21 06:59:43;;;;;;;19.70;3.30;;;5.00;99.90;;;;;;6180019;23;20186;-83
2022/01/21 07:02:10;;;;;;;11.17;3.23;;;5.00;99.90;;;;;;6180776;23;20167;-85
2022/01/21 07:04:37;;;;;;;16.07;3.20;;;5.10;99.90;;;;;;6179833;23;20174;-83
2022/01/21 07:07:04;;;;;;;10.90;2.90;;;5.10;99.90;;;;;;6180321;23;20202;-85
2022/01/21 07:09:32;;;;;;;10.30;2.27;;;5.10;99.90;;;;;;6180556;23;20186;-84
2022/01/21 07:11:58;;;;;;;11.83;2.37;;;5.10;99.90;;;;;;6179375;23;20175;-85
2022/01/21 07:14:27;;;;;;;17.80;3.20;;;5.10;99.90;;;;;;6178923;23;20194;-84
2022/01/21 07:16:53;;;;;;;13.47;2.60;;;5.10;99.90;;;;;;6180959;23;20611;-84
2022/01/21 07:19:20;;;;;;;9.83;2.40;;;5.10;99.90;;;;;;6181838;23;20173;-84
2022/01/21 07:21:47;;;;;;;16.63;2.93;;;5.20;99.90;;;;;;6181432;23;20240;-84
2022/01/21 07:24:14;;;;;;;16.23;2.83;;;5.30;99.90;;;;;;6180759;23;20174;-84
2022/01/21 07:26:41;;;;;;;13.10;2.57;;;5.30;99.90;;;;;;6182683;23;20201;-84
2022/01/21 07:29:08;;;;;;;14.40;2.63;;;5.30;99.90;;;;;;6182224;23;20174;-84
2022/01/21 07:31:36;;;;;;;15.57;3.93;;;5.40;99.90;;;;;;6182237;23;20171;-85
2022/01/21 07:34:05;;;;;;;14.97;3.23;;;5.50;99.90;;;;;;6180656;23;20175;-84
2022/01/21 07:36:33;;;;;;;19.67;2.97;;;5.50;99.90;;;;;;6182221;23;20195;-84
2022/01/21 07:39:00;;;;;;;15.67;2.90;;;5.60;99.90;;;;;;6182436;23;20174;-84
2022/01/21 07:41:27;;;;;;;12.37;2.87;;;5.60;99.90;;;;;;6181129;23;20178;-84
2022/01/21 07:43:54;;;;;;;15.83;3.40;;;5.70;99.90;;;;;;6181344;23;20167;-83
2022/01/21 07:46:22;;;;;;;16.63;3.50;;;5.80;99.90;;;;;;6180857;23;20215;-84
2022/01/21 07:48:50;;;;;;;16.03;2.77;;;5.90;99.90;;;;;;6181590;23;20881;-84
2022/01/21 07:51:17;;;;;;;15.47;2.67;;;6.00;99.90;;;;;;6182111;23;20210;-86
2022/01/21 07:53:44;;;;;;;12.43;2.50;;;6.00;99.90;;;;;;6182203;23;20167;-85
2022/01/21 07:56:10;;;;;;;10.13;3.10;;;6.00;99.90;;;;;;6180760;23;20471;-85
2022/01/21 07:58:37;;;;;;;16.53;3.70;;;6.00;99.90;;;;;;6181143;23;20201;-86
2022/01/21 08:01:04;;;;;;;18.10;3.50;;;6.10;99.90;;;;;;6182192;23;20174;-85
2022/01/21 08:03:31;;;;;;;15.47;3.30;;;6.10;99.90;;;;;;6181477;23;20179;-84
2022/01/21 08:05:59;;;;;;;14.13;3.30;;;6.10;99.90;;;;;;6178797;23;20171;-85
2022/01/21 08:08:27;;;;;;;17.03;3.67;;;6.10;99.90;;;;;;6179960;23;20166;-84
2022/01/21 08:10:54;;;;;;;11.90;2.50;;;6.20;99.90;;;;;;6179518;23;20174;-84
2022/01/21 08:13:21;;;;;;;15.77;2.57;;;6.30;99.90;;;;;;6180175;23;20481;-84
2022/01/21 08:15:47;;;;;;;15.70;2.37;;;6.30;99.90;;;;;;6179746;23;20171;-82
2022/01/21 08:18:15;;;;;;;21.97;4.27;;;6.40;99.90;;;;;;6179971;23;20175;-83
2022/01/21 08:24:06;;;;;;;16.57;2.83;;;6.50;99.90;;;;;;6034463;23;20171;-85
2022/01/21 08:26:34;;;;;;;17.40;2.87;;;6.50;99.90;;;;;;6179609;23;20650;-84
2022/01/21 08:29:02;;;;;;;18.03;2.63;;;6.60;99.90;;;;;;6180645;23;20177;-84
2022/01/21 08:31:29;;;;;;;11.57;2.40;;;6.60;99.90;;;;;;6180287;23;20175;-84
2022/01/21 08:33:56;;;;;;;17.70;2.60;;;6.60;99.90;;;;;;6180055;23;20186;-83
2022/01/21 08:36:24;;;;;;;9.33;2.23;;;6.70;99.90;;;;;;6179887;23;20171;-83
2022/01/21 08:38:52;;;;;;;16.87;2.50;;;6.70;99.90;;;;;;6178197;23;20183;-83
2022/01/21 08:41:21;;;;;;;13.20;3.23;;;6.70;99.90;;;;;;6179236;23;20178;-83
2022/01/21 08:43:48;;;;;;;12.63;2.30;;;6.80;99.90;;;;;;6180170;23;20186;-85
2022/01/21 08:46:14;;;;;;;13.90;2.60;;;6.80;99.90;;;;;;6179839;23;20171;-83
2022/01/21 08:48:41;;;;;;;8.80;1.93;;;6.80;99.90;;;;;;6179791;23;20209;-84
2022/01/21 08:51:11;;;;;;;13.13;2.83;;;6.80;99.90;;;;;;6178750;23;20225;-82
2022/01/21 08:53:41;;;;;;;9.57;2.43;;;6.90;99.90;;;;;;6179436;23;20179;-82
2022/01/21 08:56:10;;;;;;;11.53;2.93;;;7.00;99.90;;;;;;6180515;23;20174;-82
2022/01/21 08:58:39;;;;;;;13.17;2.60;;;7.00;99.90;;;;;;6180377;23;20175;-84
2022/01/21 09:01:06;;;;;;;8.93;2.07;;;7.00;99.90;;;;;;6180584;23;20177;-83
2022/01/21 09:03:34;;;;;;;11.67;2.27;;;7.10;99.90;;;;;;6180189;23;20666;-82
2022/01/21 09:06:01;;;;;;;11.57;2.07;;;7.10;99.90;;;;;;6179895;23;20626;-84
2022/01/21 09:08:30;;;;;;;12.80;2.00;;;7.10;99.90;;;;;;6179858;23;20206;-82
2022/01/21 09:11:01;;;;;;;10.80;2.10;;;7.20;99.90;;;;;;6179850;23;20178;-84
2022/01/21 09:13:30;;;;;;;12.43;1.80;;;7.20;99.90;;;;;;6179577;23;20158;-83
2022/01/21 09:16:01;;;;;;;12.37;1.90;;;7.20;99.90;;;;;;6179961;23;20179;-83
2022/01/21 09:18:34;;;;;;;10.90;2.10;;;7.20;99.90;;;;;;6180043;23;20447;-85
2022/01/21 09:21:01;;;;;;;14.80;2.20;;;7.30;99.90;;;;;;6178787;23;20431;-82
2022/01/21 09:23:28;;;;;;;8.77;1.97;;;7.30;99.90;;;;;;6179475;23;20171;-84
2022/01/21 09:25:55;;;;;;;12.60;2.30;;;7.30;99.90;;;;;;6179138;23;20178;-84
2022/01/21 09:28:23;;;;;;;10.23;1.67;;;7.30;99.90;;;;;;6178365;23;20190;-83
2022/01/21 09:30:50;;;;;;;11.33;2.27;;;7.30;99.90;;;;;;6180563;23;20242;-83
2022/01/21 09:33:18;;;;;;;16.00;2.20;;;7.30;99.90;;;;;;6180006;23;20171;-84
2022/01/21 09:35:45;;;;;;;11.73;2.73;;;7.30;99.90;;;;;;6178339;23;20175;-83
2022/01/21 09:38:12;;;;;;;10.10;2.63;;;7.30;99.90;;;;;;6178239;23;20235;-83
2022/01/21 09:40:44;;;;;;;12.90;2.17;;;7.30;99.90;;;;;;6175579;23;20765;-84
2022/01/21 09:43:11;;;;;;;13.27;2.47;;;7.40;99.90;;;;;;6177482;23;20244;-83
2022/01/21 09:45:39;;;;;;;13.07;1.67;;;7.40;99.90;;;;;;6179257;23;20186;-84
2022/01/21 09:48:08;;;;;;;12.47;3.13;;;7.50;99.90;;;;;;6178755;23;20198;-84
2022/01/21 09:50:37;;;;;;;13.20;2.57;;;7.50;99.90;;;;;;6178701;23;20809;-84
2022/01/21 09:53:05;;;;;;;15.90;2.60;;;7.50;99.90;;;;;;6178844;23;20191;-85
2022/01/21 09:55:31;;;;;;;10.47;2.23;;;7.60;99.90;;;;;;6177538;23;20233;-84
2022/01/21 09:57:58;;;;;;;11.30;2.60;;;7.70;99.90;;;;;;6178959;23;20211;-83
2022/01/21 10:00:27;;;;;;;14.67;2.27;;;7.70;99.90;;;;;;6178583;23;20564;-83
2022/01/21 10:02:56;;;;;;;17.80;3.00;;;7.70;99.90;;;;;;6178453;23;20171;-84
2022/01/21 10:05:23;;;;;;;15.33;3.50;;;7.80;99.90;;;;;;6178877;23;20650;-82
2022/01/21 10:07:52;;;;;;;11.60;2.80;;;7.80;99.90;;;;;;6178926;23;20194;-84
2022/01/21 10:10:19;;;;;;;10.27;2.40;;;7.80;99.90;;;;;;6178301;23;20181;-83
2022/01/21 10:12:48;;;;;;;13.60;2.67;;;7.80;99.90;;;;;;6179296;23;20228;-83
2022/01/21 10:15:17;;;;;;;17.60;2.80;;;7.80;99.90;;;;;;6179148;23;20185;-84
2022/01/21 10:18:00;;;;;;;16.33;3.27;;;7.90;99.90;;;;;;6180170;23;20171;-85
2022/01/21 10:20:27;;;;;;;9.63;2.40;;;7.90;99.90;;;;;;6178581;23;20166;-84
2022/01/21 10:23:01;;;;;;;14.67;3.23;;;7.90;99.90;;;;;;6177857;23;20171;-84
2022/01/21 10:25:28;;;;;;;11.33;2.20;;;7.90;99.90;;;;;;6179115;23;20242;-82
2022/01/21 10:28:10;;;;;;;16.23;3.13;;;7.90;99.90;;;;;;6178896;23;20198;-83
2022/01/21 10:30:37;;;;;;;10.67;2.67;;;7.90;99.90;;;;;;6179180;23;20171;-84
2022/01/21 10:33:19;;;;;;;19.03;2.77;;;7.90;99.90;;;;;;6178785;23;20559;-85
2022/01/21 10:35:48;;;;;;;12.37;2.57;;;8.00;99.90;;;;;;6177782;23;20741;-84
2022/01/21 10:38:18;;;;;;;20.50;3.20;;;8.00;99.90;;;;;;6179169;23;20806;-85
2022/01/21 10:40:45;;;;;;;21.20;3.27;;;8.00;99.90;;;;;;6178948;23;20175;-83
2022/01/21 10:43:13;;;;;;;11.80;2.57;;;8.00;99.90;;;;;;6179127;23;20174;-84
2022/01/21 10:45:51;;;;;;;11.70;2.27;;;8.00;99.90;;;;;;6178041;23;20233;-83
2022/01/21 10:48:18;;;;;;;15.43;3.30;;;8.00;99.90;;;;;;6179073;23;20194;-84
2022/01/21 10:50:45;;;;;;;14.43;2.57;;;7.90;99.90;;;;;;6178528;23;20209;-83
2022/01/21 10:53:30;;;;;;;15.87;2.60;;;8.00;99.90;;;;;;6179450;23;20201;-84
2022/01/21 10:56:10;;;;;;;18.60;2.60;;;8.00;99.90;;;;;;6179207;23;20171;-84
2022/01/21 10:58:41;;;;;;;16.83;3.17;;;8.00;99.90;;;;;;6179597;23;20206;-83
2022/01/21 11:01:13;;;;;;;12.83;3.00;;;8.00;99.90;;;;;;6180045;23;20202;-83
2022/01/21 11:03:56;;;;;;;20.00;2.97;;;7.90;99.90;;;;;;6179180;23;20721;-84
2022/01/21 11:06:25;;;;;;;15.93;2.63;;;8.00;99.90;;;;;;6179306;23;20166;-84
2022/01/21 11:09:15;;;;;;;14.97;3.47;;;8.10;99.90;;;;;;6179724;23;20198;-85
2022/01/21 11:11:42;;;;;;;7.97;2.10;;;8.20;99.90;;;;;;6177589;23;20171;-84
2022/01/21 11:14:14;;;;;;;10.83;2.70;;;8.30;99.90;;;;;;6177357;23;20170;-85
2022/01/21 11:16:45;;;;;;;17.87;2.83;;;8.50;99.90;;;;;;6180541;23;20174;-84
2022/01/21 11:19:14;;;;;;;8.43;2.53;;;8.50;99.90;;;;;;6178457;23;20174;-85
2022/01/21 11:21:53;;;;;;;13.07;2.87;;;8.50;99.90;;;;;;6179537;23;20197;-86
2022/01/21 11:24:23;;;;;;;15.83;3.23;;;8.50;99.90;;;;;;6179804;23;20170;-86
2022/01/21 11:27:15;;;;;;;10.60;2.43;;;8.40;99.90;;;;;;6178467;23;20197;-83
2022/01/21 11:29:43;;;;;;;13.10;2.97;;;8.40;99.90;;;;;;6151297;23;20208;-86
2022/01/21 11:32:11;;;;;;;12.03;2.47;;;8.40;99.90;;;;;;6178864;23;20175;-85
2022/01/21 11:34:38;;;;;;;10.97;2.93;;;8.40;99.90;;;;;;6180332;23;20175;-86
2022/01/21 11:37:08;;;;;;;13.63;3.13;;;8.40;99.90;;;;;;6180565;23;20722;-86
2022/01/21 11:39:37;;;;;;;12.97;2.60;;;8.30;99.90;;;;;;6180369;23;20175;-85
2022/01/21 11:42:07;;;;;;;15.07;2.60;;;8.30;99.90;;;;;;6179939;23;20175;-84
2022/01/21 11:44:37;;;;;;;9.23;2.70;;;8.30;99.90;;;;;;6180234;23;20159;-86
2022/01/21 11:47:28;;;;;;;11.97;2.60;;;8.30;99.90;;;;;;6178597;23;20280;-85
2022/01/21 11:49:57;;;;;;;14.13;3.17;;;8.30;99.90;;;;;;6177875;23;20261;-81
2022/01/21 11:52:23;;;;;;;9.30;2.50;;;8.30;99.90;;;;;;6179187;23;20195;-88
2022/01/21 11:54:52;;;;;;;10.60;2.40;;;8.30;99.90;;;;;;6178156;23;20175;-82
2022/01/21 11:57:29;;;;;;;16.90;2.73;;;8.30;99.90;;;;;;6180146;23;20454;-88
2022/01/21 12:00:04;;;;;;;16.53;2.17;;;8.30;99.90;;;;;;6181151;23;20205;-85
2022/01/21 12:02:32;;;;;;;15.73;3.57;;;8.30;99.90;;;;;;6180150;23;20170;-84
2022/01/21 12:05:00;;;;;;;15.40;2.87;;;8.30;99.90;;;;;;6181116;23;20230;-85
2022/01/21 12:07:54;;;;;;;12.13;3.47;;;8.30;99.90;;;;;;6182531;23;20202;-86
2022/01/21 12:10:35;;;;;;;13.67;2.13;;;8.30;99.90;;;;;;6182330;23;20171;-82
2022/01/21 12:13:06;;;;;;;13.43;3.03;;;8.20;99.90;;;;;;6181780;23;20185;-84
2022/01/21 12:16:06;;;;;;;12.60;2.23;;;8.20;99.90;;;;;;6181966;23;20178;-86
2022/01/21 12:19:19;;;;;;;9.00;2.40;;;8.20;99.90;;;;;;6182262;23;20190;-86
2022/01/21 12:21:48;;;;;;;14.23;2.70;;;8.20;99.90;;;;;;6182244;23;20178;-85
2022/01/21 12:24:16;;;;;;;13.13;2.57;;;8.20;99.90;;;;;;6182653;23;20174;-86
2022/01/21 12:26:59;;;;;;;12.40;2.23;;;8.20;99.90;;;;;;6181597;23;20839;-88
2022/01/21 12:29:29;;;;;;;15.17;2.77;;;8.10;99.90;;;;;;6181916;23;20194;-88
2022/01/21 12:32:06;;;;;;;12.50;2.67;;;8.10;99.90;;;;;;6181802;23;20167;-90
2022/01/21 12:35:13;;;;;;;13.97;2.87;;;8.10;99.90;;;;;;6181301;23;20190;-86
2022/01/21 12:41:04;;;;;;;17.40;3.80;;;8.00;99.90;;;;;;6182067;23;20189;-88
2022/01/21 12:43:39;;;;;;;9.23;2.80;;;8.00;99.90;;;;;;6181227;23;20174;-90
2022/01/21 12:46:07;;;;;;;11.40;2.70;;;8.00;99.90;;;;;;6178869;23;20746;-89
2022/01/21 12:48:35;;;;;;;12.37;2.60;;;8.00;99.90;;;;;;6181886;23;20198;-88
2022/01/21 12:51:14;;;;;;;16.87;3.10;;;8.00;99.90;;;;;;6162845;23;20208;-87
2022/01/21 12:55:55;;;;;;;16.23;3.03;;;8.00;99.90;;;;;;6152243;23;20636;-83
2022/01/21 12:56:34;;;;;;;9.67;2.67;;;7.90;99.90;;;;;;6153028;23;20246;-84
2022/01/21 12:59:01;;;;;;;12.10;2.83;;;7.90;99.90;;;;;;6152009;23;20167;-89
2022/01/21 13:01:37;;;;;;;14.07;3.43;;;7.90;99.90;;;;;;6151513;23;20183;-88
2022/01/21 13:04:11;;;;;;;8.40;2.43;;;8.00;99.90;;;;;;6149743;23;20164;-89
2022/01/21 13:06:42;;;;;;;10.80;2.40;;;8.00;99.90;;;;;;6152667;23;20197;-87
2022/01/21 13:09:13;;;;;;;14.33;2.70;;;8.00;99.90;;;;;;6152706;23;20190;-91
2022/01/21 13:11:42;;;;;;;10.23;2.33;;;8.00;99.90;;;;;;6152242;23;20190;-88
2022/01/21 13:14:26;;;;;;;9.90;2.47;;;8.00;99.90;;;;;;6151768;23;20175;-89
2022/01/21 13:16:58;;;;;;;14.20;3.17;;;8.00;99.90;;;;;;6153283;23;20194;-84
2022/01/21 13:19:25;;;;;;;15.00;3.33;;;8.00;99.90;;;;;;6151787;23;20170;-88
2022/01/21 13:21:51;;;;;;;11.43;2.60;;;8.00;99.90;;;;;;6152104;23;20180;-90
2022/01/21 13:24:28;;;;;;;12.13;2.87;;;8.10;99.90;;;;;;6152594;23;20180;-93
2022/01/21 13:26:55;;;;;;;10.07;2.50;;;8.10;99.90;;;;;;6152627;23;20575;-88
2022/01/21 13:29:31;;;;;;;13.40;2.87;;;8.10;99.90;;;;;;6152016;23;20199;-91
2022/01/21 13:32:00;;;;;;;9.30;2.20;;;8.10;99.90;;;;;;6152495;23;20174;-85
2022/01/21 13:34:29;;;;;;;13.63;3.07;;;8.10;99.90;;;;;;6151372;23;20176;-88
2022/01/21 13:36:58;;;;;;;13.67;2.30;;;8.00;99.90;;;;;;6151140;23;20168;-90
2022/01/21 13:39:28;;;;;;;14.03;2.43;;;8.00;99.90;;;;;;6151274;23;20441;-91
2022/01/21 13:42:02;;;;;;;16.33;3.03;;;8.00;99.90;;;;;;6150848;23;20243;-83
2022/01/21 13:44:42;;;;;;;10.27;2.80;;;7.90;99.90;;;;;;6151032;23;20203;-86